sensor_id;sensor_type;location;lat;lon;timestamp;pressure;altitude;pressure_sealevel;temperature
69785;BMP280;14177;51.520;6.764;2022-07-03T00:01:57;101455.13;;;20.33
69785;BMP280;14177;51.520;6.764;2022-07-03T00:04:25;101453.50;;;20.30
69785;BMP280;14177;51.520;6.764;2022-07-03T00:06:54;101447.41;;;20.30
69785;BMP280;14177;51.520;6.764;2022-07-03T00:09:21;101442.31;;;20.27
69785;BMP280;14177;51.520;6.764;2022-07-03T00:11:49;101453.69;;;20.27
69785;BMP280;14177;51.520;6.764;2022-07-03T00:14:16;101455.50;;;20.27
69785;BMP280;14177;51.520;6.764;2022-07-03T00:16:44;101448.59;;;20.24
69785;BMP280;14177;51.520;6.764;2022-07-03T00:19:12;101449.47;;;20.25
69785;BMP280;14177;51.520;6.764;2022-07-03T00:22:05;101452.09;;;20.25
69785;BMP280;14177;51.520;6.764;2022-07-03T00:24:44;101445.88;;;20.26
69785;BMP280;14177;51.520;6.764;2022-07-03T00:27:16;101453.88;;;20.24
69785;BMP280;14177;51.520;6.764;2022-07-03T00:29:45;101450.59;;;20.21
69785;BMP280;14177;51.520;6.764;2022-07-03T00:32:22;101452.66;;;20.16
69785;BMP280;14177;51.520;6.764;2022-07-03T00:34:52;101460.56;;;20.16
69785;BMP280;14177;51.520;6.764;2022-07-03T00:37:20;101463.09;;;20.17
69785;BMP280;14177;51.520;6.764;2022-07-03T00:39:48;101457.06;;;20.15
69785;BMP280;14177;51.520;6.764;2022-07-03T00:42:17;101454.78;;;20.09
69785;BMP280;14177;51.520;6.764;2022-07-03T00:44:48;101449.81;;;20.05
69785;BMP280;14177;51.520;6.764;2022-07-03T00:47:18;101440.38;;;20.01
69785;BMP280;14177;51.520;6.764;2022-07-03T00:49:49;101441.31;;;20.00
69785;BMP280;14177;51.520;6.764;2022-07-03T00:52:21;101441.56;;;19.95
69785;BMP280;14177;51.520;6.764;2022-07-03T00:55:00;101435.53;;;19.93
69785;BMP280;14177;51.520;6.764;2022-07-03T00:57:29;101429.50;;;19.91
69785;BMP280;14177;51.520;6.764;2022-07-03T00:59:57;101422.59;;;19.89
69785;BMP280;14177;51.520;6.764;2022-07-03T01:02:53;101423.66;;;19.86
69785;BMP280;14177;51.520;6.764;2022-07-03T01:05:35;101413.28;;;19.83
69785;BMP280;14177;51.520;6.764;2022-07-03T01:16:57;101408.50;;;19.60
69785;BMP280;14177;51.520;6.764;2022-07-03T01:19:44;101415.06;;;19.54
69785;BMP280;14177;51.520;6.764;2022-07-03T01:25:09;101422.81;;;19.41
69785;BMP280;14177;51.520;6.764;2022-07-03T01:27:56;101416.09;;;19.36
69785;BMP280;14177;51.520;6.764;2022-07-03T01:30:39;101403.38;;;19.28
69785;BMP280;14177;51.520;6.764;2022-07-03T01:33:16;101407.72;;;19.29
69785;BMP280;14177;51.520;6.764;2022-07-03T01:36:04;101405.94;;;19.30
69785;BMP280;14177;51.520;6.764;2022-07-03T01:38:38;101406.69;;;19.32
69785;BMP280;14177;51.520;6.764;2022-07-03T01:41:10;101407.53;;;19.32
69785;BMP280;14177;51.520;6.764;2022-07-03T01:43:48;101406.59;;;19.33
69785;BMP280;14177;51.520;6.764;2022-07-03T01:46:18;101406.78;;;19.30
69785;BMP280;14177;51.520;6.764;2022-07-03T01:48:45;101401.69;;;19.27
69785;BMP280;14177;51.520;6.764;2022-07-03T01:51:15;101400.16;;;19.23
69785;BMP280;14177;51.520;6.764;2022-07-03T01:53:53;101397.97;;;19.16
69785;BMP280;14177;51.520;6.764;2022-07-03T01:56:23;101406.25;;;19.08
69785;BMP280;14177;51.520;6.764;2022-07-03T01:58:51;101406.53;;;19.04
69785;BMP280;14177;51.520;6.764;2022-07-03T02:01:43;101394.53;;;18.98
69785;BMP280;14177;51.520;6.764;2022-07-03T02:04:32;101398.97;;;18.98
69785;BMP280;14177;51.520;6.764;2022-07-03T02:07:21;101402.59;;;18.95
69785;BMP280;14177;51.520;6.764;2022-07-03T02:10:04;101402.69;;;18.94
69785;BMP280;14177;51.520;6.764;2022-07-03T02:12:48;101389.81;;;18.89
69785;BMP280;14177;51.520;6.764;2022-07-03T02:15:21;101391.25;;;18.79
69785;BMP280;14177;51.520;6.764;2022-07-03T02:18:10;101390.81;;;18.71
69785;BMP280;14177;51.520;6.764;2022-07-03T02:20:45;101389.28;;;18.67
69785;BMP280;14177;51.520;6.764;2022-07-03T02:23:13;101396.56;;;18.62
69785;BMP280;14177;51.520;6.764;2022-07-03T02:25:46;101395.03;;;18.58
69785;BMP280;14177;51.520;6.764;2022-07-03T02:28:50;101397.22;;;18.50
69785;BMP280;14177;51.520;6.764;2022-07-03T02:31:24;101391.28;;;18.47
69785;BMP280;14177;51.520;6.764;2022-07-03T02:33:58;101390.44;;;18.46
69785;BMP280;14177;51.520;6.764;2022-07-03T02:36:31;101391.47;;;18.44
69785;BMP280;14177;51.520;6.764;2022-07-03T02:39:00;101389.66;;;18.44
69785;BMP280;14177;51.520;6.764;2022-07-03T02:41:49;101387.13;;;18.43
69785;BMP280;14177;51.520;6.764;2022-07-03T02:45:01;101396.00;;;18.40
69785;BMP280;14177;51.520;6.764;2022-07-03T02:50:04;101400.75;;;18.34
69785;BMP280;14177;51.520;6.764;2022-07-03T02:55:10;101393.38;;;18.24
69785;BMP280;14177;51.520;6.764;2022-07-03T02:57:40;101398.91;;;18.19
69785;BMP280;14177;51.520;6.764;2022-07-03T03:00:12;101399.16;;;18.15
69785;BMP280;14177;51.520;6.764;2022-07-03T03:05:34;101396.91;;;18.07
69785;BMP280;14177;51.520;6.764;2022-07-03T03:08:37;101397.94;;;18.05
69785;BMP280;14177;51.520;6.764;2022-07-03T03:11:42;101397.16;;;18.03
69785;BMP280;14177;51.520;6.764;2022-07-03T03:14:19;101390.28;;;18.00
69785;BMP280;14177;51.520;6.764;2022-07-03T03:16:53;101392.22;;;17.97
69785;BMP280;14177;51.520;6.764;2022-07-03T03:19:22;101395.94;;;17.93
69785;BMP280;14177;51.520;6.764;2022-07-03T03:25:20;101401.91;;;17.79
69785;BMP280;14177;51.520;6.764;2022-07-03T03:27:47;101404.75;;;17.75
69785;BMP280;14177;51.520;6.764;2022-07-03T03:30:14;101406.69;;;17.71
69785;BMP280;14177;51.520;6.764;2022-07-03T03:32:42;101412.09;;;17.68
69785;BMP280;14177;51.520;6.764;2022-07-03T03:35:09;101408.75;;;17.65
69785;BMP280;14177;51.520;6.764;2022-07-03T03:37:36;101404.75;;;17.58
69785;BMP280;14177;51.520;6.764;2022-07-03T03:40:05;101411.06;;;17.54
69785;BMP280;14177;51.520;6.764;2022-07-03T03:42:32;101419.03;;;17.52
69785;BMP280;14177;51.520;6.764;2022-07-03T03:44:59;101414.63;;;17.53
69785;BMP280;14177;51.520;6.764;2022-07-03T03:47:26;101419.88;;;17.53
69785;BMP280;14177;51.520;6.764;2022-07-03T03:49:54;101424.19;;;17.54
69785;BMP280;14177;51.520;6.764;2022-07-03T03:52:21;101422.59;;;17.51
69785;BMP280;14177;51.520;6.764;2022-07-03T03:54:48;101421.72;;;17.51
69785;BMP280;14177;51.520;6.764;2022-07-03T03:57:21;101425.13;;;17.53
69785;BMP280;14177;51.520;6.764;2022-07-03T03:59:49;101421.50;;;17.55
69785;BMP280;14177;51.520;6.764;2022-07-03T04:02:17;101424.81;;;17.59
69785;BMP280;14177;51.520;6.764;2022-07-03T04:04:44;101429.09;;;17.61
69785;BMP280;14177;51.520;6.764;2022-07-03T04:07:11;101432.56;;;17.62
69785;BMP280;14177;51.520;6.764;2022-07-03T04:09:38;101429.94;;;17.62
69785;BMP280;14177;51.520;6.764;2022-07-03T04:12:06;101432.66;;;17.60
69785;BMP280;14177;51.520;6.764;2022-07-03T04:14:33;101434.41;;;17.60
69785;BMP280;14177;51.520;6.764;2022-07-03T04:17:00;101435.28;;;17.60
69785;BMP280;14177;51.520;6.764;2022-07-03T04:19:27;101450.03;;;17.63
69785;BMP280;14177;51.520;6.764;2022-07-03T04:21:54;101454.50;;;17.61
69785;BMP280;14177;51.520;6.764;2022-07-03T04:24:20;101445.78;;;17.60
69785;BMP280;14177;51.520;6.764;2022-07-03T04:26:47;101455.13;;;17.66
69785;BMP280;14177;51.520;6.764;2022-07-03T04:29:16;101459.47;;;17.67
69785;BMP280;14177;51.520;6.764;2022-07-03T04:31:42;101452.34;;;17.69
69785;BMP280;14177;51.520;6.764;2022-07-03T04:34:09;101466.13;;;17.74
69785;BMP280;14177;51.520;6.764;2022-07-03T04:36:36;101462.25;;;17.81
69785;BMP280;14177;51.520;6.764;2022-07-03T04:39:03;101461.03;;;17.88
69785;BMP280;14177;51.520;6.764;2022-07-03T04:41:30;101464.97;;;17.96
69785;BMP280;14177;51.520;6.764;2022-07-03T04:43:57;101458.31;;;18.06
69785;BMP280;14177;51.520;6.764;2022-07-03T04:46:24;101460.56;;;18.14
69785;BMP280;14177;51.520;6.764;2022-07-03T04:48:51;101467.84;;;18.26
69785;BMP280;14177;51.520;6.764;2022-07-03T04:51:17;101465.75;;;18.32
69785;BMP280;14177;51.520;6.764;2022-07-03T04:53:45;101462.66;;;18.41
69785;BMP280;14177;51.520;6.764;2022-07-03T04:56:11;101459.59;;;18.48
69785;BMP280;14177;51.520;6.764;2022-07-03T04:58:38;101470.56;;;18.56
69785;BMP280;14177;51.520;6.764;2022-07-03T05:01:05;101459.72;;;18.62
69785;BMP280;14177;51.520;6.764;2022-07-03T05:03:32;101465.50;;;18.69
69785;BMP280;14177;51.520;6.764;2022-07-03T05:05:59;101465.09;;;18.76
69785;BMP280;14177;51.520;6.764;2022-07-03T05:08:26;101481.25;;;18.86
69785;BMP280;14177;51.520;6.764;2022-07-03T05:10:53;101467.69;;;18.93
69785;BMP280;14177;51.520;6.764;2022-07-03T05:13:21;101467.25;;;19.01
69785;BMP280;14177;51.520;6.764;2022-07-03T05:15:48;101476.53;;;19.08
69785;BMP280;14177;51.520;6.764;2022-07-03T05:18:14;101481.38;;;19.15
69785;BMP280;14177;51.520;6.764;2022-07-03T05:20:47;101483.84;;;19.18
69785;BMP280;14177;51.520;6.764;2022-07-03T05:23:14;101481.03;;;19.21
69785;BMP280;14177;51.520;6.764;2022-07-03T05:25:41;101478.06;;;19.27
69785;BMP280;14177;51.520;6.764;2022-07-03T05:28:08;101485.81;;;19.30
69785;BMP280;14177;51.520;6.764;2022-07-03T05:30:35;101476.03;;;19.32
69785;BMP280;14177;51.520;6.764;2022-07-03T05:33:02;101483.59;;;19.38
69785;BMP280;14177;51.520;6.764;2022-07-03T05:35:29;101483.09;;;19.47
69785;BMP280;14177;51.520;6.764;2022-07-03T05:37:56;101485.44;;;19.52
69785;BMP280;14177;51.520;6.764;2022-07-03T05:40:23;101481.53;;;19.58
69785;BMP280;14177;51.520;6.764;2022-07-03T05:42:50;101489.19;;;19.63
69785;BMP280;14177;51.520;6.764;2022-07-03T05:45:17;101491.56;;;19.67
69785;BMP280;14177;51.520;6.764;2022-07-03T05:47:44;101479.97;;;19.70
69785;BMP280;14177;51.520;6.764;2022-07-03T05:50:11;101482.84;;;19.81
69785;BMP280;14177;51.520;6.764;2022-07-03T05:52:38;101477.22;;;19.87
69785;BMP280;14177;51.520;6.764;2022-07-03T05:55:05;101482.72;;;19.98
69785;BMP280;14177;51.520;6.764;2022-07-03T05:57:32;101476.34;;;20.02
69785;BMP280;14177;51.520;6.764;2022-07-03T06:00:01;101481.09;;;20.11
69785;BMP280;14177;51.520;6.764;2022-07-03T06:02:31;101483.19;;;20.20
69785;BMP280;14177;51.520;6.764;2022-07-03T06:04:58;101481.13;;;20.25
69785;BMP280;14177;51.520;6.764;2022-07-03T06:07:25;101481.53;;;20.33
69785;BMP280;14177;51.520;6.764;2022-07-03T06:09:52;101482.75;;;20.41
69785;BMP280;14177;51.520;6.764;2022-07-03T06:12:19;101484.16;;;20.47
69785;BMP280;14177;51.520;6.764;2022-07-03T06:14:46;101491.69;;;20.53
69785;BMP280;14177;51.520;6.764;2022-07-03T06:17:13;101484.28;;;20.59
69785;BMP280;14177;51.520;6.764;2022-07-03T06:19:40;101480.38;;;20.65
69785;BMP280;14177;51.520;6.764;2022-07-03T06:22:07;101483.41;;;20.73
69785;BMP280;14177;51.520;6.764;2022-07-03T06:24:34;101485.41;;;20.83
69785;BMP280;14177;51.520;6.764;2022-07-03T06:27:01;101489.09;;;20.94
69785;BMP280;14177;51.520;6.764;2022-07-03T06:29:28;101481.56;;;21.02
69785;BMP280;14177;51.520;6.764;2022-07-03T06:31:55;101486.97;;;21.13
69785;BMP280;14177;51.520;6.764;2022-07-03T06:34:22;101487.66;;;21.17
69785;BMP280;14177;51.520;6.764;2022-07-03T06:36:48;101487.19;;;21.10
69785;BMP280;14177;51.520;6.764;2022-07-03T06:39:15;101484.63;;;21.09
69785;BMP280;14177;51.520;6.764;2022-07-03T06:41:42;101488.47;;;21.17
69785;BMP280;14177;51.520;6.764;2022-07-03T06:44:09;101488.00;;;21.25
69785;BMP280;14177;51.520;6.764;2022-07-03T06:46:36;101492.22;;;21.27
69785;BMP280;14177;51.520;6.764;2022-07-03T06:49:03;101493.16;;;21.40
69785;BMP280;14177;51.520;6.764;2022-07-03T06:51:30;101488.22;;;21.48
69785;BMP280;14177;51.520;6.764;2022-07-03T06:53:57;101496.38;;;21.58
69785;BMP280;14177;51.520;6.764;2022-07-03T06:56:24;101495.94;;;21.65
69785;BMP280;14177;51.520;6.764;2022-07-03T06:58:56;101492.97;;;21.70
69785;BMP280;14177;51.520;6.764;2022-07-03T07:01:23;101498.94;;;21.73
69785;BMP280;14177;51.520;6.764;2022-07-03T07:03:50;101496.44;;;21.84
69785;BMP280;14177;51.520;6.764;2022-07-03T07:06:17;101503.53;;;21.96
69785;BMP280;14177;51.520;6.764;2022-07-03T07:08:44;101498.28;;;22.09
69785;BMP280;14177;51.520;6.764;2022-07-03T07:11:11;101498.50;;;22.18
69785;BMP280;14177;51.520;6.764;2022-07-03T07:13:38;101500.94;;;22.21
69785;BMP280;14177;51.520;6.764;2022-07-03T07:16:05;101499.81;;;22.37
69785;BMP280;14177;51.520;6.764;2022-07-03T07:18:32;101498.91;;;22.51
69785;BMP280;14177;51.520;6.764;2022-07-03T07:21:01;101501.00;;;22.71
69785;BMP280;14177;51.520;6.764;2022-07-03T07:23:28;101494.97;;;22.81
69785;BMP280;14177;51.520;6.764;2022-07-03T07:25:55;101489.53;;;22.83
69785;BMP280;14177;51.520;6.764;2022-07-03T07:28:21;101488.91;;;22.92
69785;BMP280;14177;51.520;6.764;2022-07-03T07:30:48;101490.91;;;23.01
69785;BMP280;14177;51.520;6.764;2022-07-03T07:33:15;101487.63;;;23.10
69785;BMP280;14177;51.520;6.764;2022-07-03T07:35:42;101486.97;;;23.19
69785;BMP280;14177;51.520;6.764;2022-07-03T07:38:09;101499.22;;;23.32
69785;BMP280;14177;51.520;6.764;2022-07-03T07:40:36;101495.00;;;23.30
69785;BMP280;14177;51.520;6.764;2022-07-03T07:43:03;101497.31;;;23.34
69785;BMP280;14177;51.520;6.764;2022-07-03T07:45:30;101500.25;;;23.42
69785;BMP280;14177;51.520;6.764;2022-07-03T07:47:57;101509.31;;;23.50
69785;BMP280;14177;51.520;6.764;2022-07-03T07:50:24;101502.41;;;23.60
69785;BMP280;14177;51.520;6.764;2022-07-03T07:52:51;101503.28;;;23.72
69785;BMP280;14177;51.520;6.764;2022-07-03T07:55:18;101504.25;;;23.83
69785;BMP280;14177;51.520;6.764;2022-07-03T07:57:48;101502.59;;;23.93
69785;BMP280;14177;51.520;6.764;2022-07-03T08:00:17;101501.41;;;24.08
69785;BMP280;14177;51.520;6.764;2022-07-03T08:02:45;101500.50;;;24.20
69785;BMP280;14177;51.520;6.764;2022-07-03T08:05:31;101502.84;;;24.36
69785;BMP280;14177;51.520;6.764;2022-07-03T08:08:11;101505.88;;;24.42
69785;BMP280;14177;51.520;6.764;2022-07-03T08:10:50;101507.31;;;24.46
69785;BMP280;14177;51.520;6.764;2022-07-03T08:13:18;101504.59;;;24.59
69785;BMP280;14177;51.520;6.764;2022-07-03T08:15:46;101498.22;;;24.72
69785;BMP280;14177;51.520;6.764;2022-07-03T08:18:16;101496.03;;;24.77
69785;BMP280;14177;51.520;6.764;2022-07-03T08:20:43;101510.31;;;24.76
69785;BMP280;14177;51.520;6.764;2022-07-03T08:23:10;101506.91;;;24.85
69785;BMP280;14177;51.520;6.764;2022-07-03T08:25:37;101497.84;;;24.98
69785;BMP280;14177;51.520;6.764;2022-07-03T08:28:04;101488.03;;;25.10
69785;BMP280;14177;51.520;6.764;2022-07-03T08:30:31;101499.78;;;25.18
69785;BMP280;14177;51.520;6.764;2022-07-03T08:33:00;101496.38;;;25.27
69785;BMP280;14177;51.520;6.764;2022-07-03T08:35:28;101495.53;;;25.38
69785;BMP280;14177;51.520;6.764;2022-07-03T08:37:56;101490.19;;;25.49
69785;BMP280;14177;51.520;6.764;2022-07-03T08:40:23;101501.75;;;25.59
69785;BMP280;14177;51.520;6.764;2022-07-03T08:42:57;101495.69;;;25.57
69785;BMP280;14177;51.520;6.764;2022-07-03T08:45:25;101501.25;;;25.65
69785;BMP280;14177;51.520;6.764;2022-07-03T08:47:58;101494.44;;;25.83
69785;BMP280;14177;51.520;6.764;2022-07-03T08:50:26;101496.28;;;26.02
69785;BMP280;14177;51.520;6.764;2022-07-03T08:52:53;101502.75;;;26.20
69785;BMP280;14177;51.520;6.764;2022-07-03T08:55:20;101495.06;;;26.27
69785;BMP280;14177;51.520;6.764;2022-07-03T08:57:48;101502.66;;;26.31
69785;BMP280;14177;51.520;6.764;2022-07-03T09:00:18;101506.22;;;26.41
69785;BMP280;14177;51.520;6.764;2022-07-03T09:02:48;101498.38;;;26.40
69785;BMP280;14177;51.520;6.764;2022-07-03T09:05:17;101502.59;;;26.42
69785;BMP280;14177;51.520;6.764;2022-07-03T09:07:45;101500.16;;;26.50
69785;BMP280;14177;51.520;6.764;2022-07-03T09:10:16;101502.34;;;26.45
69785;BMP280;14177;51.520;6.764;2022-07-03T09:12:47;101506.91;;;26.54
69785;BMP280;14177;51.520;6.764;2022-07-03T09:15:15;101503.72;;;26.60
69785;BMP280;14177;51.520;6.764;2022-07-03T09:20:39;101500.50;;;26.96
69785;BMP280;14177;51.520;6.764;2022-07-03T09:26:00;101498.44;;;27.48
69785;BMP280;14177;51.520;6.764;2022-07-03T09:28:53;101501.59;;;27.82
69785;BMP280;14177;51.520;6.764;2022-07-03T09:31:26;101498.09;;;27.91
69785;BMP280;14177;51.520;6.764;2022-07-03T09:34:04;101506.38;;;28.07
69785;BMP280;14177;51.520;6.764;2022-07-03T09:36:42;101499.91;;;27.81
69785;BMP280;14177;51.520;6.764;2022-07-03T09:39:27;101495.69;;;27.78
69785;BMP280;14177;51.520;6.764;2022-07-03T09:42:02;101498.94;;;28.01
69785;BMP280;14177;51.520;6.764;2022-07-03T09:47:20;101497.94;;;28.30
69785;BMP280;14177;51.520;6.764;2022-07-03T09:50:02;101497.94;;;28.40
69785;BMP280;14177;51.520;6.764;2022-07-03T09:52:43;101496.66;;;28.25
69785;BMP280;14177;51.520;6.764;2022-07-03T09:57:54;101501.03;;;28.26
69785;BMP280;14177;51.520;6.764;2022-07-03T10:00:34;101491.13;;;28.54
69785;BMP280;14177;51.520;6.764;2022-07-03T10:03:07;101485.38;;;28.59
69785;BMP280;14177;51.520;6.764;2022-07-03T10:05:40;101492.28;;;28.52
69785;BMP280;14177;51.520;6.764;2022-07-03T10:08:11;101491.81;;;28.56
69785;BMP280;14177;51.520;6.764;2022-07-03T10:10:44;101486.28;;;28.86
69785;BMP280;14177;51.520;6.764;2022-07-03T10:13:12;101480.28;;;29.29
69785;BMP280;14177;51.520;6.764;2022-07-03T10:15:40;101487.06;;;29.50
69785;BMP280;14177;51.520;6.764;2022-07-03T10:18:14;101485.28;;;29.59
69785;BMP280;14177;51.520;6.764;2022-07-03T10:20:47;101497.56;;;29.61
69785;BMP280;14177;51.520;6.764;2022-07-03T10:23:16;101493.03;;;29.62
69785;BMP280;14177;51.520;6.764;2022-07-03T10:25:44;101484.84;;;29.81
69785;BMP280;14177;51.520;6.764;2022-07-03T10:28:13;101482.88;;;30.00
69785;BMP280;14177;51.520;6.764;2022-07-03T10:30:46;101490.28;;;30.06
69785;BMP280;14177;51.520;6.764;2022-07-03T10:33:14;101490.28;;;30.06
69785;BMP280;14177;51.520;6.764;2022-07-03T10:35:53;101498.78;;;29.84
69785;BMP280;14177;51.520;6.764;2022-07-03T10:41:16;101494.53;;;29.20
69785;BMP280;14177;51.520;6.764;2022-07-03T10:44:06;101494.78;;;29.26
69785;BMP280;14177;51.520;6.764;2022-07-03T10:46:59;101502.03;;;28.89
69785;BMP280;14177;51.520;6.764;2022-07-03T10:49:33;101503.22;;;28.58
69785;BMP280;14177;51.520;6.764;2022-07-03T10:52:03;101501.94;;;28.62
69785;BMP280;14177;51.520;6.764;2022-07-03T10:54:35;101505.81;;;28.77
69785;BMP280;14177;51.520;6.764;2022-07-03T10:57:04;101496.09;;;28.86
69785;BMP280;14177;51.520;6.764;2022-07-03T11:02:28;101500.03;;;29.18
69785;BMP280;14177;51.520;6.764;2022-07-03T11:07:38;101500.31;;;29.69
69785;BMP280;14177;51.520;6.764;2022-07-03T11:33:58;101470.38;;;29.91
69785;BMP280;14177;51.520;6.764;2022-07-03T11:36:31;101469.91;;;30.13
69785;BMP280;14177;51.520;6.764;2022-07-03T11:41:41;101468.53;;;30.09
69785;BMP280;14177;51.520;6.764;2022-07-03T11:44:15;101475.78;;;30.34
69785;BMP280;14177;51.520;6.764;2022-07-03T11:46:49;101469.34;;;30.27
69785;BMP280;14177;51.520;6.764;2022-07-03T11:49:21;101473.84;;;30.44
69785;BMP280;14177;51.520;6.764;2022-07-03T11:52:03;101468.56;;;30.34
69785;BMP280;14177;51.520;6.764;2022-07-03T11:54:33;101476.78;;;30.33
69785;BMP280;14177;51.520;6.764;2022-07-03T11:57:15;101480.94;;;30.10
69785;BMP280;14177;51.520;6.764;2022-07-03T11:59:42;101480.34;;;29.81
69785;BMP280;14177;51.520;6.764;2022-07-03T12:02:09;101485.31;;;30.11
69785;BMP280;14177;51.520;6.764;2022-07-03T12:04:38;101483.69;;;30.43
69785;BMP280;14177;51.520;6.764;2022-07-03T12:07:06;101476.28;;;30.55
69785;BMP280;14177;51.520;6.764;2022-07-03T12:09:36;101481.06;;;30.77
69785;BMP280;14177;51.520;6.764;2022-07-03T12:12:08;101475.19;;;30.48
69785;BMP280;14177;51.520;6.764;2022-07-03T12:14:51;101475.66;;;30.18
69785;BMP280;14177;51.520;6.764;2022-07-03T12:17:26;101469.41;;;29.75
69785;BMP280;14177;51.520;6.764;2022-07-03T12:19:56;101471.09;;;29.31
69785;BMP280;14177;51.520;6.764;2022-07-03T12:22:36;101470.41;;;29.56
69785;BMP280;14177;51.520;6.764;2022-07-03T12:25:11;101466.56;;;30.11
69785;BMP280;14177;51.520;6.764;2022-07-03T12:27:41;101476.84;;;30.23
69785;BMP280;14177;51.520;6.764;2022-07-03T12:30:18;101472.22;;;30.08
69785;BMP280;14177;51.520;6.764;2022-07-03T12:32:54;101458.66;;;29.92
69785;BMP280;14177;51.520;6.764;2022-07-03T12:35:23;101467.69;;;29.91
69785;BMP280;14177;51.520;6.764;2022-07-03T12:37:50;101459.53;;;29.92
69785;BMP280;14177;51.520;6.764;2022-07-03T12:40:17;101459.81;;;30.07
69785;BMP280;14177;51.520;6.764;2022-07-03T12:42:54;101459.03;;;29.97
69785;BMP280;14177;51.520;6.764;2022-07-03T12:45:25;101459.03;;;29.97
69785;BMP280;14177;51.520;6.764;2022-07-03T12:48:01;101452.09;;;30.04
69785;BMP280;14177;51.520;6.764;2022-07-03T12:50:51;101446.28;;;30.34
69785;BMP280;14177;51.520;6.764;2022-07-03T12:53:30;101435.44;;;30.69
69785;BMP280;14177;51.520;6.764;2022-07-03T12:56:05;101431.44;;;30.73
69785;BMP280;14177;51.520;6.764;2022-07-03T12:58:40;101434.25;;;31.05
69785;BMP280;14177;51.520;6.764;2022-07-03T13:01:32;101434.69;;;31.25
69785;BMP280;14177;51.520;6.764;2022-07-03T13:04:01;101431.66;;;31.20
69785;BMP280;14177;51.520;6.764;2022-07-03T13:06:28;101448.25;;;31.24
69785;BMP280;14177;51.520;6.764;2022-07-03T13:09:01;101447.38;;;31.08
69785;BMP280;14177;51.520;6.764;2022-07-03T13:11:38;101444.53;;;31.09
69785;BMP280;14177;51.520;6.764;2022-07-03T13:14:13;101436.56;;;31.41
69785;BMP280;14177;51.520;6.764;2022-07-03T13:16:47;101429.00;;;31.44
69785;BMP280;14177;51.520;6.764;2022-07-03T13:19:27;101439.03;;;31.18
69785;BMP280;14177;51.520;6.764;2022-07-03T13:21:56;101435.69;;;31.17
69785;BMP280;14177;51.520;6.764;2022-07-03T13:24:24;101441.94;;;30.92
69785;BMP280;14177;51.520;6.764;2022-07-03T13:26:53;101433.06;;;30.91
69785;BMP280;14177;51.520;6.764;2022-07-03T13:29:22;101438.41;;;30.99
69785;BMP280;14177;51.520;6.764;2022-07-03T13:31:51;101420.16;;;30.95
69785;BMP280;14177;51.520;6.764;2022-07-03T13:34:18;101436.56;;;30.92
69785;BMP280;14177;51.520;6.764;2022-07-03T13:36:45;101443.13;;;30.64
69785;BMP280;14177;51.520;6.764;2022-07-03T13:39:12;101438.72;;;30.29
69785;BMP280;14177;51.520;6.764;2022-07-03T13:41:39;101427.53;;;29.91
69785;BMP280;14177;51.520;6.764;2022-07-03T13:44:06;101437.59;;;29.54
69785;BMP280;14177;51.520;6.764;2022-07-03T13:46:33;101439.88;;;29.22
69785;BMP280;14177;51.520;6.764;2022-07-03T13:49:00;101444.78;;;29.09
69785;BMP280;14177;51.520;6.764;2022-07-03T13:51:27;101441.19;;;29.18
69785;BMP280;14177;51.520;6.764;2022-07-03T13:53:54;101442.03;;;29.19
69785;BMP280;14177;51.520;6.764;2022-07-03T13:56:21;101443.34;;;29.32
69785;BMP280;14177;51.520;6.764;2022-07-03T13:58:48;101445.03;;;29.33
69785;BMP280;14177;51.520;6.764;2022-07-03T14:01:19;101437.91;;;29.24
69785;BMP280;14177;51.520;6.764;2022-07-03T14:03:49;101442.94;;;29.10
69785;BMP280;14177;51.520;6.764;2022-07-03T14:06:16;101438.94;;;28.96
69785;BMP280;14177;51.520;6.764;2022-07-03T14:08:44;101445.41;;;28.94
69785;BMP280;14177;51.520;6.764;2022-07-03T14:11:12;101440.03;;;29.03
69785;BMP280;14177;51.520;6.764;2022-07-03T14:13:39;101447.75;;;29.06
69785;BMP280;14177;51.520;6.764;2022-07-03T14:16:06;101440.34;;;28.91
69785;BMP280;14177;51.520;6.764;2022-07-03T14:18:33;101444.81;;;28.63
69785;BMP280;14177;51.520;6.764;2022-07-03T14:21:00;101438.53;;;28.55
69785;BMP280;14177;51.520;6.764;2022-07-03T14:23:27;101456.00;;;28.40
69785;BMP280;14177;51.520;6.764;2022-07-03T14:25:53;101452.69;;;28.10
69785;BMP280;14177;51.520;6.764;2022-07-03T14:28:20;101454.28;;;28.49
69785;BMP280;14177;51.520;6.764;2022-07-03T14:31:06;101436.75;;;29.09
69785;BMP280;14177;51.520;6.764;2022-07-03T14:33:45;101439.78;;;29.14
69785;BMP280;14177;51.520;6.764;2022-07-03T14:36:12;101442.47;;;29.14
69785;BMP280;14177;51.520;6.764;2022-07-03T14:38:59;101441.22;;;29.36
69785;BMP280;14177;51.520;6.764;2022-07-03T14:41:27;101439.56;;;29.70
69785;BMP280;14177;51.520;6.764;2022-07-03T14:43:54;101437.34;;;30.00
69785;BMP280;14177;51.520;6.764;2022-07-03T14:46:21;101439.47;;;29.96
69785;BMP280;14177;51.520;6.764;2022-07-03T14:48:48;101454.06;;;30.19
69785;BMP280;14177;51.520;6.764;2022-07-03T14:51:19;101444.19;;;30.20
69785;BMP280;14177;51.520;6.764;2022-07-03T14:53:46;101454.06;;;30.19
69785;BMP280;14177;51.520;6.764;2022-07-03T14:56:18;101455.47;;;29.88
69785;BMP280;14177;51.520;6.764;2022-07-03T14:58:47;101445.16;;;29.76
69785;BMP280;14177;51.520;6.764;2022-07-03T15:01:19;101446.81;;;29.42
69785;BMP280;14177;51.520;6.764;2022-07-03T15:04:02;101455.53;;;29.17
69785;BMP280;14177;51.520;6.764;2022-07-03T15:06:30;101450.72;;;29.03
69785;BMP280;14177;51.520;6.764;2022-07-03T15:09:03;101447.41;;;28.82
69785;BMP280;14177;51.520;6.764;2022-07-03T15:14:42;101466.53;;;28.42
69785;BMP280;14177;51.520;6.764;2022-07-03T15:17:12;101470.53;;;28.19
69785;BMP280;14177;51.520;6.764;2022-07-03T15:19:42;101469.84;;;27.98
69785;BMP280;14177;51.520;6.764;2022-07-03T15:22:17;101457.78;;;27.84
69785;BMP280;14177;51.520;6.764;2022-07-03T15:24:50;101468.25;;;27.57
69785;BMP280;14177;51.520;6.764;2022-07-03T15:27:25;101472.56;;;27.39
69785;BMP280;14177;51.520;6.764;2022-07-03T15:29:55;101466.09;;;27.23
69785;BMP280;14177;51.520;6.764;2022-07-03T15:32:22;101473.41;;;27.21